Darstellungsparameter: Aktuell verwendete Einstellungen:
Skalierung der Graphiken ... ?
xyx+y,   Skalierungsfaktor:      Skalierung: Modus: x, Faktor: 1
Darstellungszeitraum ... ?
Vom - - bis: - -   Zeitraum: 22.11.2015 - 22.11.2015
Min/Max/Avg-Anzeige ... ?
Zeige MMA aktuell
Zeige MMA Monat
Zeige MMA alles
Zeige --A aktuell
Zeige --A Monat
Zeige --A alles
Keine MMA-Anzeige
MMA:
Average (ber die Originaldaten)
MMA-Basis: 22.11.2015 - 22.11.2015
Quicknavigation für Darstellung... ?
Tage:      1T, 2T, 3T, 5T -1T -2T -3T -5T +1T +2T +3T +5T
Wochen: 1W, 2W, 3W -1W -2W -3W +1W +2W +3W
Monate: 1M, 3M, 6M -1M -3M -6M +1M +3M +6M
Jahre:    1J, 3J, 5J, 10J -1J -3J -5J -10J +1J +3J +5J +10J
Nutze für die Darstellung ... ?
Originaldaten oder Mittelwerte auf ...
Stundenbasis Tagesbasis Wochenbasis
Monatsbasis Jahresbasis      Datenbasis: Original-Daten
Darstellen als:
Statistik (Auto) Statistik J:M      Darstellung:
Zur Graphik,    zurück zur Übersicht aller Sensoren.
 
Tabellarische Datenbersicht: ?
 
Sensor: Nr:Datum:Temp:Abs-Feuchte:Windchill:Wind:
Aussen-T/F 1 22-11-2015 00:00:00 1.6 C 5.19 g/m*3 1.6 C 4.8 km/h
2 22-11-2015 00:05:00 1.6 C 5.19 g/m*3 1.6 C 4.8 km/h
3 22-11-2015 00:10:00 1.5 C 5.16 g/m*3 1.5 C 4.8 km/h
4 22-11-2015 00:15:00 1.4 C 5.12 g/m*3 1.4 C 3.2 km/h
5 22-11-2015 00:20:00 1.4 C 5.12 g/m*3 1.4 C 0 km/h
6 22-11-2015 00:25:00 1.3 C 5.09 g/m*3 1.3 C 1.6 km/h
7 22-11-2015 00:30:00 1.2 C 5.05 g/m*3 1.2 C 0 km/h
8 22-11-2015 00:35:00 1.2 C 5.05 g/m*3 1.2 C 0 km/h
9 22-11-2015 00:40:00 1.1 C 5.02 g/m*3 1.1 C 0 km/h
10 22-11-2015 00:45:00 1.1 C 5.02 g/m*3 1.1 C 1.6 km/h
11 22-11-2015 00:50:00 1 C 4.98 g/m*3 1 C 1.6 km/h
12 22-11-2015 00:55:00 1 C 4.98 g/m*3 1 C 0 km/h
13 22-11-2015 01:00:00 1 C 4.98 g/m*3 1 C 1.6 km/h
14 22-11-2015 01:05:00 1.1 C 5.02 g/m*3 1.1 C 3.2 km/h
15 22-11-2015 01:10:00 1.1 C 5.02 g/m*3 1.1 C 0 km/h
16 22-11-2015 01:15:00 1.1 C 5.02 g/m*3 1.1 C 0 km/h
17 22-11-2015 01:20:00 1.3 C 5.14 g/m*3 1.3 C 4.8 km/h
18 22-11-2015 01:25:00 1.4 C 5.17 g/m*3 1.4 C 4.8 km/h
19 22-11-2015 01:30:00 1.5 C 5.21 g/m*3 1.5 C 3.2 km/h
20 22-11-2015 01:35:00 1.6 C 5.25 g/m*3 1.6 C 0 km/h
21 22-11-2015 01:40:00 1.7 C 5.28 g/m*3 1.7 C 1.6 km/h
22 22-11-2015 01:45:00 1.7 C 5.28 g/m*3 1.7 C 3.2 km/h
23 22-11-2015 01:50:00 1.8 C 5.32 g/m*3 1.8 C 1.6 km/h
24 22-11-2015 01:55:00 1.9 C 5.35 g/m*3 1.9 C 4.8 km/h
25 22-11-2015 02:00:00 1.9 C 5.35 g/m*3 1.9 C 1.6 km/h
Sensor: Nr:Datum:Temp:Abs-Feuchte:Windchill:Wind:
Aussen-T/F 26 22-11-2015 02:05:00 1.9 C 5.35 g/m*3 1.9 C 3.2 km/h
27 22-11-2015 02:10:00 1.9 C 5.35 g/m*3 1.9 C 1.6 km/h
28 22-11-2015 02:15:00 1.8 C 5.32 g/m*3 1.8 C 4.8 km/h
29 22-11-2015 02:20:00 1.8 C 5.32 g/m*3 1.8 C 3.2 km/h
30 22-11-2015 02:25:00 1.9 C 5.35 g/m*3 1.9 C 3.2 km/h
31 22-11-2015 02:30:00 1.9 C 5.35 g/m*3 1.9 C 0 km/h
32 22-11-2015 02:35:00 1.9 C 5.35 g/m*3 1.9 C 0 km/h
33 22-11-2015 02:40:00 1.8 C 5.32 g/m*3 1.8 C 3.2 km/h
34 22-11-2015 02:45:00 1.9 C 5.35 g/m*3 1.9 C 4.8 km/h
35 22-11-2015 02:50:00 2 C 5.39 g/m*3 2 C 0 km/h
36 22-11-2015 02:55:00 2.1 C 5.43 g/m*3 2.1 C 1.6 km/h
37 22-11-2015 03:00:00 2.1 C 5.43 g/m*3 2.1 C 0 km/h
38 22-11-2015 03:05:00 2 C 5.39 g/m*3 2 C 3.2 km/h
39 22-11-2015 03:10:00 2 C 5.39 g/m*3 2 C 3.2 km/h
40 22-11-2015 03:15:00 2.2 C 5.46 g/m*3 2.2 C 4.8 km/h
41 22-11-2015 03:20:00 2.3 C 5.5 g/m*3 2.3 C 3.2 km/h
42 22-11-2015 03:25:00 2.3 C 5.5 g/m*3 2.3 C 3.2 km/h
43 22-11-2015 03:30:00 2.3 C 5.5 g/m*3 2.3 C 1.6 km/h
44 22-11-2015 03:35:00 2.2 C 5.46 g/m*3 2.2 C 1.6 km/h
45 22-11-2015 03:40:00 2.1 C 5.43 g/m*3 2.1 C 0 km/h
46 22-11-2015 03:45:00 2 C 5.33 g/m*3 2 C 0 km/h
47 22-11-2015 03:50:00 1.8 C 5.26 g/m*3 1.8 C 1.6 km/h
48 22-11-2015 03:55:00 1.7 C 5.23 g/m*3 1.7 C 3.2 km/h
49 22-11-2015 04:00:00 1.6 C 5.19 g/m*3 1.6 C 1.6 km/h
50 22-11-2015 04:05:00 1.4 C 5.12 g/m*3 1.4 C 0 km/h
Sensor: Nr:Datum:Temp:Abs-Feuchte:Windchill:Wind:
Aussen-T/F 51 22-11-2015 04:10:00 1.4 C 5.12 g/m*3 1.4 C 0 km/h
52 22-11-2015 04:15:00 1.6 C 5.25 g/m*3 1.6 C 0 km/h
53 22-11-2015 04:20:00 1.7 C 5.28 g/m*3 1.7 C 1.6 km/h
54 22-11-2015 04:25:00 1.8 C 5.32 g/m*3 1.8 C 3.2 km/h
55 22-11-2015 04:30:00 1.9 C 5.35 g/m*3 1.9 C 4.8 km/h
56 22-11-2015 04:35:00 1.9 C 5.35 g/m*3 1.9 C 3.2 km/h
57 22-11-2015 04:40:00 2 C 5.39 g/m*3 2 C 0 km/h
58 22-11-2015 04:45:00 2.1 C 5.43 g/m*3 2.1 C 0 km/h
59 22-11-2015 04:50:00 2.2 C 5.46 g/m*3 2.2 C 0 km/h
60 22-11-2015 04:55:00 2.2 C 5.46 g/m*3 0.36 C 6.4 km/h
61 22-11-2015 05:00:00 2.3 C 5.5 g/m*3 -0.07 C 8.1 km/h
62 22-11-2015 05:05:00 2.3 C 5.5 g/m*3 0.47 C 6.4 km/h
63 22-11-2015 05:10:00 2.4 C 5.54 g/m*3 2.4 C 3.2 km/h
64 22-11-2015 05:15:00 2.4 C 5.54 g/m*3 2.4 C 4.8 km/h
65 22-11-2015 05:20:00 2.4 C 5.54 g/m*3 2.4 C 3.2 km/h
66 22-11-2015 05:25:00 2.4 C 5.54 g/m*3 2.4 C 4.8 km/h
67 22-11-2015 05:30:00 2.5 C 5.58 g/m*3 -0.62 C 11.3 km/h
68 22-11-2015 05:35:00 2.6 C 5.61 g/m*3 0.82 C 6.4 km/h
69 22-11-2015 05:40:00 2.5 C 5.52 g/m*3 0.17 C 8.1 km/h
70 22-11-2015 05:45:00 2.5 C 5.52 g/m*3 2.5 C 3.2 km/h
71 22-11-2015 05:50:00 2.4 C 5.48 g/m*3 0.59 C 6.4 km/h
72 22-11-2015 05:55:00 2.4 C 5.48 g/m*3 -1.37 C 14.5 km/h
73 22-11-2015 06:00:00 2.5 C 5.52 g/m*3 0.17 C 8.1 km/h
74 22-11-2015 06:05:00 2.6 C 5.5 g/m*3 -0.14 C 9.7 km/h
75 22-11-2015 06:10:00 2.6 C 5.5 g/m*3 -0.5 C 11.3 km/h
Sensor: Nr:Datum:Temp:Abs-Feuchte:Windchill:Wind:
Aussen-T/F 76 22-11-2015 06:15:00 2.7 C 5.48 g/m*3 -1.27 C 16.1 km/h
77 22-11-2015 06:20:00 2.8 C 5.46 g/m*3 -1.14 C 16.1 km/h
78 22-11-2015 06:25:00 2.8 C 5.46 g/m*3 -0.59 C 12.9 km/h
79 22-11-2015 06:30:00 2.8 C 5.46 g/m*3 0.52 C 8.1 km/h
80 22-11-2015 06:35:00 2.8 C 5.46 g/m*3 2.8 C 4.8 km/h
81 22-11-2015 06:40:00 2.8 C 5.4 g/m*3 2.8 C 4.8 km/h
82 22-11-2015 06:45:00 2.8 C 5.4 g/m*3 1.05 C 6.4 km/h
83 22-11-2015 06:50:00 2.8 C 5.4 g/m*3 2.8 C 4.8 km/h
84 22-11-2015 06:55:00 2.8 C 5.4 g/m*3 2.8 C 4.8 km/h
85 22-11-2015 07:00:00 2.8 C 5.4 g/m*3 2.8 C 4.8 km/h
86 22-11-2015 07:05:00 2.8 C 5.34 g/m*3 2.8 C 4.8 km/h
87 22-11-2015 07:10:00 2.8 C 5.34 g/m*3 2.8 C 4.8 km/h
88 22-11-2015 07:15:00 2.8 C 5.4 g/m*3 1.05 C 6.4 km/h
89 22-11-2015 07:20:00 2.8 C 5.34 g/m*3 1.05 C 6.4 km/h
90 22-11-2015 07:25:00 2.7 C 5.36 g/m*3 2.7 C 4.8 km/h
91 22-11-2015 07:30:00 2.7 C 5.36 g/m*3 2.7 C 4.8 km/h
92 22-11-2015 07:35:00 2.7 C 5.36 g/m*3 -0.38 C 11.3 km/h
93 22-11-2015 07:40:00 2.7 C 5.36 g/m*3 0.94 C 6.4 km/h
94 22-11-2015 07:45:00 2.7 C 5.36 g/m*3 0.4 C 8.1 km/h
95 22-11-2015 07:50:00 2.8 C 5.4 g/m*3 -0.26 C 11.3 km/h
96 22-11-2015 07:55:00 2.8 C 5.4 g/m*3 -0.88 C 14.5 km/h
97 22-11-2015 08:00:00 2.8 C 5.34 g/m*3 -0.59 C 12.9 km/h
98 22-11-2015 08:05:00 2.8 C 5.34 g/m*3 2.8 C 3.2 km/h
99 22-11-2015 08:10:00 2.8 C 5.34 g/m*3 1.05 C 6.4 km/h
100 22-11-2015 08:15:00 2.8 C 5.34 g/m*3 0.1 C 9.7 km/h
Sensor: Nr:Datum:Temp:Abs-Feuchte:Windchill:Wind:
Aussen-T/F 101 22-11-2015 08:20:00 2.8 C 5.34 g/m*3 0.52 C 8.1 km/h
102 22-11-2015 08:25:00 2.8 C 5.34 g/m*3 2.8 C 4.8 km/h
103 22-11-2015 08:30:00 2.8 C 5.4 g/m*3 1.05 C 6.4 km/h
104 22-11-2015 08:35:00 2.8 C 5.34 g/m*3 2.8 C 4.8 km/h
105 22-11-2015 08:40:00 2.9 C 5.43 g/m*3 2.9 C 0 km/h
106 22-11-2015 08:45:00 2.9 C 5.43 g/m*3 2.9 C 3.2 km/h
107 22-11-2015 08:50:00 2.9 C 5.43 g/m*3 2.9 C 3.2 km/h
108 22-11-2015 08:55:00 2.9 C 5.43 g/m*3 2.9 C 0 km/h
109 22-11-2015 09:00:00 2.9 C 5.43 g/m*3 2.9 C 0 km/h
110 22-11-2015 09:05:00 3 C 5.53 g/m*3 3 C 0 km/h
111 22-11-2015 09:10:00 3.1 C 5.57 g/m*3 0.46 C 9.7 km/h
112 22-11-2015 09:15:00 3 C 5.47 g/m*3 0.76 C 8.1 km/h
113 22-11-2015 09:20:00 3 C 5.47 g/m*3 3 C 1.6 km/h
114 22-11-2015 09:25:00 3.1 C 5.51 g/m*3 3.1 C 1.6 km/h
115 22-11-2015 09:30:00 3.1 C 5.51 g/m*3 3.1 C 3.2 km/h
116 22-11-2015 09:35:00 3.1 C 5.51 g/m*3 3.1 C 0 km/h
117 22-11-2015 09:40:00 3.1 C 5.57 g/m*3 3.1 C 0 km/h
118 22-11-2015 09:45:00 3.2 C 5.6 g/m*3 3.2 C 0 km/h
119 22-11-2015 09:50:00 3.2 C 5.54 g/m*3 3.2 C 3.2 km/h
120 22-11-2015 09:55:00 3.2 C 5.54 g/m*3 3.2 C 0 km/h
121 22-11-2015 10:00:00 3.3 C 5.64 g/m*3 3.3 C 0 km/h
122 22-11-2015 10:05:00 3.3 C 5.64 g/m*3 3.3 C 1.6 km/h
123 22-11-2015 10:10:00 3.4 C 5.68 g/m*3 3.4 C 0 km/h
124 22-11-2015 10:15:00 3.4 C 5.68 g/m*3 3.4 C 0 km/h
125 22-11-2015 10:20:00 3.5 C 5.72 g/m*3 3.5 C 0 km/h
Sensor: Nr:Datum:Temp:Abs-Feuchte:Windchill:Wind:
Aussen-T/F 126 22-11-2015 10:25:00 3.6 C 5.76 g/m*3 3.6 C 0 km/h
127 22-11-2015 10:30:00 3.6 C 5.76 g/m*3 3.6 C 0 km/h
128 22-11-2015 10:35:00 3.6 C 5.69 g/m*3 3.6 C 0 km/h
129 22-11-2015 10:40:00 3.7 C 5.73 g/m*3 3.7 C 0 km/h
130 22-11-2015 10:45:00 3.8 C 5.77 g/m*3 3.8 C 0 km/h
131 22-11-2015 10:50:00 3.9 C 5.81 g/m*3 3.9 C 3.2 km/h
132 22-11-2015 10:55:00 3.9 C 5.68 g/m*3 3.9 C 4.8 km/h
133 22-11-2015 11:00:00 3.8 C 5.65 g/m*3 2.21 C 6.4 km/h
134 22-11-2015 11:05:00 3.7 C 5.67 g/m*3 1.58 C 8.1 km/h
135 22-11-2015 11:10:00 3.7 C 5.67 g/m*3 3.7 C 4.8 km/h
136 22-11-2015 11:15:00 3.7 C 5.67 g/m*3 3.7 C 1.6 km/h
137 22-11-2015 11:20:00 3.7 C 5.67 g/m*3 3.7 C 3.2 km/h
138 22-11-2015 11:25:00 3.7 C 5.67 g/m*3 3.7 C 1.6 km/h
139 22-11-2015 11:30:00 3.7 C 5.73 g/m*3 3.7 C 0 km/h
140 22-11-2015 11:35:00 3.7 C 5.67 g/m*3 3.7 C 4.8 km/h
141 22-11-2015 11:40:00 3.7 C 5.73 g/m*3 3.7 C 0 km/h
142 22-11-2015 11:45:00 3.8 C 5.77 g/m*3 3.8 C 1.6 km/h
143 22-11-2015 11:50:00 3.8 C 5.77 g/m*3 3.8 C 0 km/h
144 22-11-2015 11:55:00 3.9 C 5.81 g/m*3 3.9 C 0 km/h
145 22-11-2015 12:00:00 4 C 5.91 g/m*3 4 C 1.6 km/h
146 22-11-2015 12:05:00 4.1 C 5.89 g/m*3 4.1 C 1.6 km/h
147 22-11-2015 12:10:00 4.2 C 5.93 g/m*3 4.2 C 1.6 km/h
148 22-11-2015 12:15:00 4.3 C 5.97 g/m*3 4.3 C 3.2 km/h
149 22-11-2015 12:20:00 4.4 C 6.01 g/m*3 4.4 C 1.6 km/h
150 22-11-2015 12:25:00 4.5 C 5.98 g/m*3 4.5 C 0 km/h
Sensor: Nr:Datum:Temp:Abs-Feuchte:Windchill:Wind:
Aussen-T/F 151 22-11-2015 12:30:00 4.6 C 6.02 g/m*3 4.6 C 3.2 km/h
152 22-11-2015 12:35:00 4.7 C 6 g/m*3 2.03 C 11.3 km/h
153 22-11-2015 12:40:00 4.8 C 5.9 g/m*3 4.8 C 4.8 km/h
154 22-11-2015 12:45:00 5 C 5.91 g/m*3 3.59 C 6.4 km/h
155 22-11-2015 12:50:00 5 C 5.84 g/m*3 2.39 C 11.3 km/h
156 22-11-2015 12:55:00 4.9 C 5.74 g/m*3 2.27 C 11.3 km/h
157 22-11-2015 13:00:00 4.9 C 5.81 g/m*3 4.9 C 3.2 km/h
158 22-11-2015 13:05:00 4.8 C 5.83 g/m*3 4.8 C 3.2 km/h
159 22-11-2015 13:10:00 4.8 C 5.77 g/m*3 4.8 C 4.8 km/h
160 22-11-2015 13:15:00 4.8 C 5.7 g/m*3 4.8 C 4.8 km/h
161 22-11-2015 13:20:00 4.8 C 5.7 g/m*3 4.8 C 4.8 km/h
162 22-11-2015 13:25:00 4.8 C 5.63 g/m*3 3.36 C 6.4 km/h
163 22-11-2015 13:30:00 4.9 C 5.67 g/m*3 2.99 C 8.1 km/h
164 22-11-2015 13:35:00 4.9 C 5.67 g/m*3 3.48 C 6.4 km/h
165 22-11-2015 13:40:00 4.9 C 5.74 g/m*3 4.9 C 4.8 km/h
166 22-11-2015 13:45:00 4.9 C 5.67 g/m*3 4.9 C 4.8 km/h
167 22-11-2015 13:50:00 5 C 5.71 g/m*3 5 C 1.6 km/h
168 22-11-2015 13:55:00 5 C 5.57 g/m*3 3.59 C 6.4 km/h
169 22-11-2015 14:00:00 5.1 C 5.61 g/m*3 3.23 C 8.1 km/h
170 22-11-2015 14:05:00 5.1 C 5.47 g/m*3 2.84 C 9.7 km/h
171 22-11-2015 14:10:00 5.1 C 5.4 g/m*3 3.71 C 6.4 km/h
172 22-11-2015 14:15:00 5.2 C 5.37 g/m*3 2.34 C 12.9 km/h
173 22-11-2015 14:20:00 5.3 C 5.41 g/m*3 2.46 C 12.9 km/h
174 22-11-2015 14:25:00 5.4 C 5.44 g/m*3 4.06 C 6.4 km/h
175 22-11-2015 14:30:00 5.6 C 5.44 g/m*3 2.33 C 16.1 km/h
Sensor: Nr:Datum:Temp:Abs-Feuchte:Windchill:Wind:
Aussen-T/F 176 22-11-2015 14:35:00 5.7 C 5.48 g/m*3 3.56 C 9.7 km/h
177 22-11-2015 14:40:00 5.8 C 5.44 g/m*3 2.58 C 16.1 km/h
178 22-11-2015 14:45:00 5.7 C 5.34 g/m*3 2.95 C 12.9 km/h
179 22-11-2015 14:50:00 5.7 C 5.41 g/m*3 3.56 C 9.7 km/h
180 22-11-2015 14:55:00 5.7 C 5.41 g/m*3 2.95 C 12.9 km/h
181 22-11-2015 15:00:00 5.6 C 5.3 g/m*3 3.44 C 9.7 km/h
182 22-11-2015 15:05:00 5.5 C 5.27 g/m*3 2.99 C 11.3 km/h
183 22-11-2015 15:10:00 5.5 C 5.34 g/m*3 5.5 C 4.8 km/h
184 22-11-2015 15:15:00 5.5 C 5.34 g/m*3 5.5 C 4.8 km/h
185 22-11-2015 15:20:00 5.4 C 5.37 g/m*3 2.87 C 11.3 km/h
186 22-11-2015 15:25:00 5.4 C 5.23 g/m*3 2.32 C 14.5 km/h
187 22-11-2015 15:30:00 5.3 C 5.27 g/m*3 2.46 C 12.9 km/h
188 22-11-2015 15:35:00 5.3 C 5.34 g/m*3 2.75 C 11.3 km/h
189 22-11-2015 15:40:00 5.2 C 5.3 g/m*3 2.63 C 11.3 km/h
190 22-11-2015 15:45:00 5.2 C 5.23 g/m*3 2.34 C 12.9 km/h
191 22-11-2015 15:50:00 5.1 C 5.2 g/m*3 2.84 C 9.7 km/h
192 22-11-2015 15:55:00 5.2 C 5.23 g/m*3 2.96 C 9.7 km/h
193 22-11-2015 16:00:00 5.1 C 5.27 g/m*3 3.23 C 8.1 km/h
194 22-11-2015 16:05:00 5 C 5.23 g/m*3 3.11 C 8.1 km/h
195 22-11-2015 16:10:00 4.8 C 5.16 g/m*3 2.15 C 11.3 km/h
196 22-11-2015 16:15:00 4.8 C 5.16 g/m*3 2.49 C 9.7 km/h
197 22-11-2015 16:20:00 4.7 C 5.2 g/m*3 2.37 C 9.7 km/h
198 22-11-2015 16:25:00 4.7 C 5.13 g/m*3 1.73 C 12.9 km/h
199 22-11-2015 16:30:00 4.6 C 5.16 g/m*3 2.64 C 8.1 km/h
200 22-11-2015 16:35:00 4.6 C 5.1 g/m*3 1.91 C 11.3 km/h
Sensor: Nr:Datum:Temp:Abs-Feuchte:Windchill:Wind:
Aussen-T/F 201 22-11-2015 16:40:00 4.5 C 5.13 g/m*3 2.52 C 8.1 km/h
202 22-11-2015 16:45:00 4.4 C 5.16 g/m*3 2.9 C 6.4 km/h
203 22-11-2015 16:50:00 4.3 C 5.12 g/m*3 2.78 C 6.4 km/h
204 22-11-2015 16:55:00 4.2 C 5.15 g/m*3 2.67 C 6.4 km/h
205 22-11-2015 17:00:00 4.1 C 5.12 g/m*3 4.1 C 4.8 km/h
206 22-11-2015 17:05:00 4.1 C 5.12 g/m*3 1.65 C 9.7 km/h
207 22-11-2015 17:10:00 4.2 C 5.15 g/m*3 1.77 C 9.7 km/h
208 22-11-2015 17:15:00 4.2 C 5.09 g/m*3 1.77 C 9.7 km/h
209 22-11-2015 17:20:00 4.3 C 5.12 g/m*3 1.89 C 9.7 km/h
210 22-11-2015 17:25:00 4.5 C 5.13 g/m*3 0.33 C 20.9 km/h
211 22-11-2015 17:30:00 4.1 C 5.18 g/m*3 -0.55 C 24.1 km/h
212 22-11-2015 17:35:00 3.4 C 5.07 g/m*3 -0.86 C 19.3 km/h
213 22-11-2015 17:40:00 2.9 C 5.08 g/m*3 -1.26 C 17.7 km/h
214 22-11-2015 17:45:00 2.6 C 5.09 g/m*3 -0.83 C 12.9 km/h
215 22-11-2015 17:50:00 2.3 C 5.1 g/m*3 -0.87 C 11.3 km/h
216 22-11-2015 17:55:00 2.1 C 5.09 g/m*3 -1.74 C 14.5 km/h
217 22-11-2015 18:00:00 1.9 C 5.08 g/m*3 -2.51 C 17.7 km/h
218 22-11-2015 18:05:00 1.8 C 5.04 g/m*3 -1.09 C 9.7 km/h
219 22-11-2015 18:10:00 1.8 C 5.1 g/m*3 -2.64 C 17.7 km/h
220 22-11-2015 18:15:00 1.8 C 5.1 g/m*3 -2.38 C 16.1 km/h
221 22-11-2015 18:20:00 1.8 C 5.15 g/m*3 -2.11 C 14.5 km/h
222 22-11-2015 18:25:00 1.7 C 5.06 g/m*3 -2.51 C 16.1 km/h
223 22-11-2015 18:30:00 1.6 C 5.03 g/m*3 -1.71 C 11.3 km/h
224 22-11-2015 18:35:00 1.4 C 4.96 g/m*3 -1.12 C 8.1 km/h
225 22-11-2015 18:40:00 1.3 C 4.98 g/m*3 -1.69 C 9.7 km/h
Sensor: Nr:Datum:Temp:Abs-Feuchte:Windchill:Wind:
Aussen-T/F 226 22-11-2015 18:45:00 1.3 C 4.98 g/m*3 -1.69 C 9.7 km/h
227 22-11-2015 18:50:00 1.3 C 4.98 g/m*3 -0.68 C 6.4 km/h
228 22-11-2015 18:55:00 1.3 C 4.98 g/m*3 -0.68 C 6.4 km/h
229 22-11-2015 19:00:00 1.3 C 4.98 g/m*3 1.3 C 3.2 km/h
230 22-11-2015 19:05:00 1.4 C 5.01 g/m*3 -1.57 C 9.7 km/h
231 22-11-2015 19:10:00 1.4 C 5.07 g/m*3 -1.12 C 8.1 km/h
232 22-11-2015 19:15:00 1.4 C 5.07 g/m*3 -0.56 C 6.4 km/h
233 22-11-2015 19:20:00 1.5 C 5.1 g/m*3 -1.01 C 8.1 km/h
234 22-11-2015 19:25:00 1.5 C 5.1 g/m*3 1.5 C 4.8 km/h
235 22-11-2015 19:30:00 1.6 C 5.14 g/m*3 1.6 C 3.2 km/h
236 22-11-2015 19:35:00 1.6 C 5.14 g/m*3 1.6 C 3.2 km/h
237 22-11-2015 19:40:00 1.6 C 5.14 g/m*3 1.6 C 3.2 km/h
238 22-11-2015 19:45:00 1.6 C 5.14 g/m*3 1.6 C 1.6 km/h
239 22-11-2015 19:50:00 1.6 C 5.14 g/m*3 1.6 C 3.2 km/h
240 22-11-2015 19:55:00 1.6 C 5.14 g/m*3 1.6 C 3.2 km/h
241 22-11-2015 20:00:00 1.6 C 5.14 g/m*3 1.6 C 4.8 km/h
242 22-11-2015 20:05:00 1.6 C 5.14 g/m*3 1.6 C 1.6 km/h
243 22-11-2015 20:10:00 1.7 C 5.17 g/m*3 1.7 C 4.8 km/h
244 22-11-2015 20:15:00 1.7 C 5.17 g/m*3 1.7 C 1.6 km/h
245 22-11-2015 20:20:00 1.7 C 5.17 g/m*3 1.7 C 1.6 km/h
246 22-11-2015 20:25:00 1.7 C 5.17 g/m*3 -0.22 C 6.4 km/h
247 22-11-2015 20:30:00 1.7 C 5.17 g/m*3 1.7 C 3.2 km/h
248 22-11-2015 20:35:00 1.7 C 5.17 g/m*3 1.7 C 1.6 km/h
249 22-11-2015 20:40:00 1.6 C 5.14 g/m*3 1.6 C 1.6 km/h
250 22-11-2015 20:45:00 1.5 C 5.1 g/m*3 -0.45 C 6.4 km/h
Sensor: Nr:Datum:Temp:Abs-Feuchte:Windchill:Wind:
Aussen-T/F 251 22-11-2015 20:50:00 1.4 C 5.07 g/m*3 1.4 C 0 km/h
252 22-11-2015 20:55:00 1.4 C 5.07 g/m*3 1.4 C 4.8 km/h
253 22-11-2015 21:00:00 1.5 C 5.16 g/m*3 1.5 C 4.8 km/h
254 22-11-2015 21:05:00 1.6 C 5.19 g/m*3 1.6 C 4.8 km/h
255 22-11-2015 21:10:00 1.6 C 5.19 g/m*3 1.6 C 1.6 km/h
256 22-11-2015 21:15:00 1.6 C 5.19 g/m*3 -1.33 C 9.7 km/h
257 22-11-2015 21:20:00 1.6 C 5.19 g/m*3 1.6 C 3.2 km/h
258 22-11-2015 21:25:00 1.7 C 5.23 g/m*3 1.7 C 1.6 km/h
259 22-11-2015 21:30:00 1.7 C 5.23 g/m*3 1.7 C 0 km/h
260 22-11-2015 21:35:00 1.7 C 5.23 g/m*3 1.7 C 4.8 km/h
261 22-11-2015 21:40:00 1.7 C 5.23 g/m*3 1.7 C 4.8 km/h
262 22-11-2015 21:45:00 1.8 C 5.26 g/m*3 1.8 C 3.2 km/h
263 22-11-2015 21:50:00 1.8 C 5.26 g/m*3 -0.1 C 6.4 km/h
264 22-11-2015 21:55:00 1.8 C 5.26 g/m*3 1.8 C 4.8 km/h
265 22-11-2015 22:00:00 1.8 C 5.26 g/m*3 1.8 C 1.6 km/h
266 22-11-2015 22:05:00 1.9 C 5.3 g/m*3 1.9 C 3.2 km/h
267 22-11-2015 22:10:00 1.9 C 5.3 g/m*3 1.9 C 1.6 km/h
268 22-11-2015 22:15:00 1.9 C 5.3 g/m*3 1.9 C 1.6 km/h
269 22-11-2015 22:20:00 1.9 C 5.3 g/m*3 1.9 C 1.6 km/h
270 22-11-2015 22:25:00 2 C 5.33 g/m*3 2 C 3.2 km/h
271 22-11-2015 22:30:00 2 C 5.33 g/m*3 2 C 4.8 km/h
272 22-11-2015 22:35:00 2 C 5.33 g/m*3 -0.85 C 9.7 km/h
273 22-11-2015 22:40:00 2.1 C 5.37 g/m*3 0.24 C 6.4 km/h
274 22-11-2015 22:45:00 2.1 C 5.31 g/m*3 -0.73 C 9.7 km/h
275 22-11-2015 22:50:00 2.2 C 5.35 g/m*3 -0.18 C 8.1 km/h
Sensor: Nr:Datum:Temp:Abs-Feuchte:Windchill:Wind:
Aussen-T/F 276 22-11-2015 22:55:00 2.2 C 5.35 g/m*3 -0.18 C 8.1 km/h
277 22-11-2015 23:00:00 2.2 C 5.35 g/m*3 0.36 C 6.4 km/h
278 22-11-2015 23:05:00 2.2 C 5.35 g/m*3 -0.61 C 9.7 km/h
279 22-11-2015 23:10:00 2.1 C 5.26 g/m*3 -1.44 C 12.9 km/h
280 22-11-2015 23:15:00 2.1 C 5.26 g/m*3 -1.11 C 11.3 km/h
281 22-11-2015 23:20:00 2.1 C 5.2 g/m*3 -0.73 C 9.7 km/h
282 22-11-2015 23:25:00 2 C 5.17 g/m*3 -1.23 C 11.3 km/h
283 22-11-2015 23:30:00 1.9 C 5.13 g/m*3 0.01 C 6.4 km/h
284 22-11-2015 23:35:00 1.9 C 5.13 g/m*3 1.9 C 4.8 km/h
285 22-11-2015 23:40:00 1.8 C 5.1 g/m*3 1.8 C 4.8 km/h
286 22-11-2015 23:45:00 1.8 C 5.1 g/m*3 1.8 C 0 km/h
287 22-11-2015 23:50:00 1.7 C 5.06 g/m*3 1.7 C 3.2 km/h
288 22-11-2015 23:55:00 1.7 C 5.06 g/m*3 1.7 C 4.8 km/h

Legende:
   Min
   Max


Maximal/Minimal-Werte vom 22.11.2015 - 22.11.2015

Sensor Min Max Avg
Temp
(Aussen-T/F)
1 °C
22-11-2015  00:50:00
5.8 °C
22-11-2015  14:40:00
2.85 °C
Abs-Feuchte
(Aussen-T/F)
4.96 g/m*3
22-11-2015  18:35:00
6.02 g/m*3
22-11-2015  12:30:00
5.34 g/m*3
Windchill
(Aussen-T/F)
-2.64 C
22-11-2015  18:10:00
5.5 C
22-11-2015  15:10:00
1.79 C

Die Daten stammen von einer Davis Vantage Pro 2 Wetter-Station und werden unter Linux mit der Software wview2wettercgi und aufbereitet. Alle Angaben erfolgen ohne Gewähr für ihre Vollständigkeit oder Richtigkeit.
Kontakt: Rainer Krienke krienke@uni-koblenz.de . Meine Webseiten an der Uni Koblenz oder privat.
Version: $Revision: 0.78 $